CheckWX is a tool to help pilots better visualize weather data.  It is not intended as a substitute for an official pre-flight weather briefing.

15:06:48 UTC

KGBD TAF
Great Bend Municipal Airport
Great Bend, Kansas, USA
KGBD 211126Z 2112/2212 20009KT P6SM SKC FM211700 20017G24KT P6SM SKC FM220000 19012KT P6SM SKC

Feb-21@
12:00 UTC

Feb-21 @ 12:00 UTC

Feb-21@
17:00 UTC

Feb-21 @ 17:00 UTC

KGBD 211126Z 2112/2212 20009KT P6SM SKC
Wind
  • 200° at 9 KTS
Cloud Levels
  • Clear skies

Feb-21@
17:00 UTC

Feb-21 @ 17:00 UTC

Feb-22@
00:00 UTC

Feb-22 @ 00:00 UTC

FM211700 20017G24KT P6SM SKC

From

From Standard forecast or significant change

Wind
  • 200° at 17 KTS
  • {Gusting to 24 KTS
Cloud Levels
  • Clear skies

Feb-22@
00:00 UTC

Feb-22 @ 00:00 UTC

Feb-22@
12:00 UTC

Feb-22 @ 12:00 UTC

FM220000 19012KT P6SM SKC

From

From Standard forecast or significant change

Wind
  • 190° at 12 KTS
Cloud Levels
  • Clear skies